Terminal Aerodrome Forecast
Issued by NWS

Home | Current Version | Previous Version | Graphics & Text | Print | Product List | Glossary On
Versions: 1 2 3 4 5 6 7 8 9 10 11 12 13 14 15
912
FTUS43 KBIS 172322
TAFMOT
TAF
KMOT 172322Z 1800/1824 19012G22KT P6SM SKC
     FM180300 21011G22KT P6SM FEW150 FEW250 WS020/25045KT
     FM180800 25017G26KT P6SM FEW150 FEW250 WS020/28050KT
     FM181800 27027G40KT P6SM SKC=

USA.gov is the U.S. government's official web portal to all federal, state and local government web resources and services.